Time;durP1;ratioP1;P1;durP2;ratioP2;P2;SDS_P1;SDS_P2;PMS_P1;PMS_P2;Temp;Humidity;BMP_temperature;BMP_pressure;BME280_temperature;BME280_humidity;BME280_pressure;Samples;Min_cycle;Max_cycle;Signal;HPM_P1;HPM_P2
2023/04/24 00:00:27;;;;;;;4.38;2.20;;;17.60;96.70;;;;;;4947013;28;20055;-72
2023/04/24 00:02:56;;;;;;;5.43;2.40;;;17.50;96.70;;;;;;4962746;28;20162;-72
2023/04/24 00:05:25;;;;;;;6.47;2.30;;;17.60;96.70;;;;;;4964656;28;20053;-72
2023/04/24 00:07:54;;;;;;;3.08;2.20;;;17.70;96.70;;;;;;4963960;28;20129;-72
2023/04/24 00:10:23;;;;;;;3.95;2.30;;;17.70;96.70;;;;;;4976584;28;20051;-72
2023/04/24 00:12:51;;;;;;;5.88;2.65;;;17.70;96.70;;;;;;4962889;28;20122;-72
2023/04/24 00:15:19;;;;;;;3.90;2.45;;;17.60;96.70;;;;;;4962911;28;20050;-72
2023/04/24 00:17:47;;;;;;;3.50;2.55;;;17.60;96.70;;;;;;4962583;28;20043;-71
2023/04/24 00:20:15;;;;;;;4.95;2.15;;;17.50;96.70;;;;;;4964287;28;20864;-72
2023/04/24 00:22:43;;;;;;;5.75;2.30;;;17.50;96.70;;;;;;4961825;28;20694;-71
2023/04/24 00:25:11;;;;;;;6.93;2.55;;;17.50;96.70;;;;;;4964118;28;20043;-72
2023/04/24 00:27:41;;;;;;;5.22;2.35;;;17.50;96.70;;;;;;4966772;28;20057;-72
2023/04/24 00:30:10;;;;;;;4.50;2.53;;;17.50;96.70;;;;;;4964161;28;20051;-71
2023/04/24 00:32:38;;;;;;;4.28;2.20;;;17.50;96.70;;;;;;4962278;28;20039;-72
2023/04/24 00:35:07;;;;;;;4.97;2.15;;;17.50;96.70;;;;;;4962457;28;20146;-72
2023/04/24 00:37:36;;;;;;;5.05;2.25;;;17.40;96.70;;;;;;4962190;28;20035;-72
2023/04/24 00:40:06;;;;;;;5.85;2.45;;;17.40;96.70;;;;;;4964126;28;20058;-72
2023/04/24 00:42:35;;;;;;;3.88;2.20;;;17.50;96.70;;;;;;4962432;28;20101;-72
2023/04/24 00:45:17;;;;;;;5.07;2.65;;;17.50;96.70;;;;;;4943666;28;20046;-71
2023/04/24 00:47:46;;;;;;;4.47;2.28;;;17.50;96.70;;;;;;4960167;28;20051;-72
2023/04/24 00:50:16;;;;;;;4.40;2.25;;;17.50;96.70;;;;;;4962425;28;20435;-72
2023/04/24 00:52:44;;;;;;;3.88;2.40;;;17.50;96.70;;;;;;4963986;28;20043;-71
2023/04/24 00:55:12;;;;;;;4.88;2.35;;;17.50;96.70;;;;;;4962444;28;20090;-72
2023/04/24 00:57:40;;;;;;;5.35;2.00;;;17.50;96.70;;;;;;4963478;28;20408;-73
2023/04/24 01:00:11;;;;;;;4.68;2.28;;;17.50;96.70;;;;;;4946635;28;20786;-72
2023/04/24 01:02:43;;;;;;;3.67;2.13;;;17.50;96.70;;;;;;4976422;28;20059;-72
2023/04/24 01:05:12;;;;;;;4.40;2.10;;;17.50;96.70;;;;;;4946787;28;20394;-71
2023/04/24 01:07:43;;;;;;;2.80;2.08;;;17.50;96.70;;;;;;4963229;28;20073;-72
2023/04/24 01:10:12;;;;;;;4.18;2.13;;;17.50;96.70;;;;;;4958860;28;20106;-71
2023/04/24 01:12:40;;;;;;;6.40;2.33;;;17.50;96.70;;;;;;4961724;28;20039;-72
2023/04/24 01:15:10;;;;;;;3.65;2.03;;;17.50;96.70;;;;;;4947000;28;20185;-71
2023/04/24 01:17:39;;;;;;;4.55;2.08;;;17.60;96.70;;;;;;4967870;28;20058;-72
2023/04/24 01:20:08;;;;;;;3.00;2.25;;;17.60;96.70;;;;;;4965910;28;20416;-71
2023/04/24 01:22:38;;;;;;;4.15;2.03;;;17.60;96.70;;;;;;4965841;28;20058;-72
2023/04/24 01:25:07;;;;;;;4.43;2.08;;;17.60;96.70;;;;;;4966062;28;20058;-71
2023/04/24 01:27:35;;;;;;;4.70;2.03;;;17.40;96.70;;;;;;4980324;28;20065;-72
2023/04/24 01:30:03;;;;;;;5.03;2.47;;;17.40;96.70;;;;;;4965862;28;20051;-72
2023/04/24 01:32:31;;;;;;;4.90;2.67;;;17.30;96.70;;;;;;4965558;28;20094;-72
2023/04/24 01:34:59;;;;;;;4.47;2.15;;;17.10;96.70;;;;;;4965886;28;20207;-71
2023/04/24 01:37:27;;;;;;;4.90;2.30;;;17.10;96.70;;;;;;4965265;28;20070;-72
2023/04/24 01:39:58;;;;;;;4.85;1.80;;;17.00;96.70;;;;;;4966063;28;20046;-72
2023/04/24 01:42:26;;;;;;;5.13;2.20;;;17.10;96.70;;;;;;4960032;28;20046;-72
2023/04/24 01:44:54;;;;;;;4.88;1.98;;;17.10;96.70;;;;;;4949881;28;20051;-72
2023/04/24 01:47:24;;;;;;;3.72;2.35;;;17.10;96.70;;;;;;4966835;28;20128;-72
2023/04/24 01:49:52;;;;;;;3.72;2.20;;;17.00;96.70;;;;;;4966070;28;20544;-72
2023/04/24 01:52:20;;;;;;;7.13;2.47;;;17.00;96.70;;;;;;4966852;28;20131;-71
2023/04/24 01:54:48;;;;;;;3.33;1.88;;;17.20;96.70;;;;;;4967355;28;20047;-72
2023/04/24 01:57:18;;;;;;;4.05;1.90;;;17.20;96.70;;;;;;4966790;28;20049;-70
2023/04/24 01:59:46;;;;;;;4.32;2.05;;;17.20;96.70;;;;;;4965527;28;20054;-71
2023/04/24 02:02:14;;;;;;;5.82;2.63;;;17.30;96.70;;;;;;4967606;28;20043;-70
2023/04/24 02:04:43;;;;;;;2.90;2.08;;;17.20;96.70;;;;;;4966849;28;20054;-70
2023/04/24 02:07:11;;;;;;;3.30;2.30;;;17.10;96.70;;;;;;4964247;28;20093;-70
2023/04/24 02:09:38;;;;;;;5.03;2.45;;;17.00;96.70;;;;;;4965251;28;20047;-70
2023/04/24 02:12:07;;;;;;;4.63;2.13;;;17.00;96.70;;;;;;4965269;28;20800;-70
2023/04/24 02:14:36;;;;;;;5.38;2.58;;;17.00;96.70;;;;;;4965562;28;20570;-70
2023/04/24 02:17:04;;;;;;;6.45;2.45;;;17.10;96.70;;;;;;4965378;28;20042;-70
2023/04/24 02:19:32;;;;;;;4.82;2.15;;;17.10;96.70;;;;;;4966411;28;20117;-70
2023/04/24 02:22:00;;;;;;;5.15;2.75;;;17.00;96.70;;;;;;4964863;28;20055;-70
2023/04/24 02:24:28;;;;;;;4.63;2.47;;;17.00;96.70;;;;;;4966806;28;21098;-70
2023/04/24 02:26:57;;;;;;;4.88;2.50;;;16.90;96.70;;;;;;4967551;28;20054;-71
2023/04/24 02:29:26;;;;;;;6.85;2.13;;;16.80;96.70;;;;;;4966536;28;20605;-70
2023/04/24 02:31:56;;;;;;;3.53;2.05;;;16.80;96.70;;;;;;4964614;28;20062;-70
2023/04/24 02:34:24;;;;;;;4.13;2.15;;;16.80;96.70;;;;;;4965834;28;20488;-71
2023/04/24 02:36:53;;;;;;;4.90;2.28;;;16.90;96.70;;;;;;4965074;28;20129;-71
2023/04/24 02:39:22;;;;;;;3.60;2.35;;;17.00;96.70;;;;;;4966092;28;20046;-71
2023/04/24 02:41:49;;;;;;;4.72;2.33;;;17.00;96.70;;;;;;4948631;28;20043;-71
2023/04/24 02:44:18;;;;;;;5.03;2.22;;;16.90;96.70;;;;;;4966260;28;20047;-70
2023/04/24 02:46:45;;;;;;;5.57;2.38;;;16.80;96.70;;;;;;4964394;28;20047;-70
2023/04/24 02:49:15;;;;;;;4.25;1.98;;;16.80;96.70;;;;;;4979165;28;20533;-70
2023/04/24 02:51:43;;;;;;;4.32;2.20;;;17.00;96.70;;;;;;4964542;28;20051;-71
2023/04/24 02:54:11;;;;;;;4.82;2.60;;;17.10;96.70;;;;;;4966839;28;20631;-72
2023/04/24 02:56:39;;;;;;;4.43;1.83;;;17.10;96.70;;;;;;4965744;28;20527;-71
2023/04/24 02:59:08;;;;;;;5.70;2.83;;;17.20;96.70;;;;;;4964625;28;20057;-72
2023/04/24 03:01:37;;;;;;;4.72;2.17;;;17.20;96.70;;;;;;4948161;28;20058;-71
2023/04/24 03:04:05;;;;;;;4.53;2.33;;;17.20;96.70;;;;;;4948250;28;20073;-71
2023/04/24 03:06:35;;;;;;;3.75;1.98;;;17.20;96.70;;;;;;4965638;28;20493;-72
2023/04/24 03:09:03;;;;;;;4.05;2.05;;;17.30;96.70;;;;;;4966052;28;20047;-72
2023/04/24 03:11:32;;;;;;;3.90;2.33;;;17.30;96.70;;;;;;4965233;28;20046;-72
2023/04/24 03:14:00;;;;;;;5.43;2.13;;;17.20;96.70;;;;;;4963545;28;20094;-72
2023/04/24 03:16:28;;;;;;;7.75;2.67;;;17.20;96.70;;;;;;4963964;28;20043;-72
2023/04/24 03:18:56;;;;;;;5.25;2.10;;;17.10;96.70;;;;;;4947624;28;20061;-72
2023/04/24 03:21:27;;;;;;;3.85;2.85;;;17.00;96.70;;;;;;4963926;28;20053;-72
2023/04/24 03:23:56;;;;;;;6.85;2.20;;;16.90;96.70;;;;;;4964971;28;20047;-72
2023/04/24 03:26:24;;;;;;;6.97;2.85;;;16.90;96.70;;;;;;4965600;28;20058;-72
2023/04/24 03:29:15;;;;;;;6.15;2.42;;;16.80;96.70;;;;;;4976395;28;20138;-72
2023/04/24 03:31:44;;;;;;;4.40;2.20;;;16.80;96.70;;;;;;4962889;28;20043;-72
2023/04/24 03:34:12;;;;;;;6.07;2.72;;;16.80;96.70;;;;;;4964736;28;20710;-71
2023/04/24 03:36:40;;;;;;;4.57;2.17;;;16.70;96.70;;;;;;4963436;28;20105;-71
2023/04/24 03:39:11;;;;;;;6.57;2.72;;;16.70;96.70;;;;;;4977440;28;20075;-71
2023/04/24 03:41:45;;;;;;;4.22;2.25;;;16.60;96.70;;;;;;4948456;28;20050;-72
2023/04/24 03:44:18;;;;;;;4.75;2.45;;;16.70;96.70;;;;;;4963786;28;20054;-71
2023/04/24 03:46:46;;;;;;;5.38;2.40;;;16.80;96.70;;;;;;4963410;28;20051;-72
2023/04/24 03:49:15;;;;;;;5.43;3.03;;;16.70;96.70;;;;;;4962732;28;20047;-72
2023/04/24 03:51:45;;;;;;;5.30;2.25;;;16.70;96.70;;;;;;4963209;28;20043;-72
2023/04/24 03:54:27;;;;;;;4.10;2.35;;;16.60;96.70;;;;;;4951756;28;20142;-72
2023/04/24 03:56:55;;;;;;;5.05;2.65;;;16.50;96.70;;;;;;4963487;28;20141;-72
2023/04/24 03:59:25;;;;;;;5.20;2.60;;;16.60;96.70;;;;;;4947086;28;20050;-72
2023/04/24 04:02:13;;;;;;;7.57;2.42;;;16.60;96.70;;;;;;4964354;28;20057;-71
2023/04/24 04:04:42;;;;;;;3.13;2.00;;;16.70;96.70;;;;;;4964191;28;20047;-72
2023/04/24 04:07:34;;;;;;;5.28;2.50;;;16.70;96.70;;;;;;4962911;28;20081;-71
2023/04/24 04:10:04;;;;;;;5.20;2.10;;;16.70;96.70;;;;;;4904468;29;20833;-72
2023/04/24 04:12:32;;;;;;;7.60;2.58;;;16.60;96.70;;;;;;4873021;29;20062;-71
2023/04/24 04:15:00;;;;;;;4.35;2.60;;;16.70;96.70;;;;;;4903596;29;20060;-72
2023/04/24 04:17:28;;;;;;;7.95;3.65;;;16.70;96.70;;;;;;4887785;29;20067;-72
2023/04/24 04:19:57;;;;;;;8.95;3.67;;;16.70;96.70;;;;;;4903447;29;20054;-72
2023/04/24 04:22:25;;;;;;;6.82;3.95;;;16.70;96.70;;;;;;4904104;29;20565;-73
2023/04/24 04:24:53;;;;;;;26.83;18.33;;;16.50;96.70;;;;;;4888205;29;20052;-72
2023/04/24 04:27:26;;;;;;;7.80;5.00;;;16.30;96.70;;;;;;4882840;29;20146;-71
2023/04/24 04:30:04;;;;;;;11.02;5.63;;;16.10;96.70;;;;;;4887280;29;20109;-72
2023/04/24 04:32:41;;;;;;;23.27;16.25;;;16.10;96.70;;;;;;4898676;29;20055;-72
2023/04/24 04:35:09;;;;;;;17.33;11.60;;;16.00;96.70;;;;;;4874736;29;20052;-71
2023/04/24 04:37:38;;;;;;;14.30;9.48;;;16.00;96.70;;;;;;4872651;29;20139;-72
2023/04/24 04:40:15;;;;;;;9.90;5.25;;;15.90;96.70;;;;;;4873055;29;20047;-72
2023/04/24 04:42:53;;;;;;;9.13;4.88;;;15.80;96.70;;;;;;4903695;29;20147;-72
2023/04/24 04:45:24;;;;;;;5.18;2.88;;;15.80;96.70;;;;;;4887943;29;20166;-71
2023/04/24 04:48:13;;;;;;;8.15;2.90;;;15.80;96.70;;;;;;4956912;28;20050;-71
2023/04/24 04:50:41;;;;;;;6.22;2.72;;;15.70;96.70;;;;;;4945598;28;20157;-71
2023/04/24 04:53:10;;;;;;;4.82;2.60;;;15.70;96.70;;;;;;4961981;28;20046;-72
2023/04/24 04:55:39;;;;;;;8.18;3.22;;;15.70;96.70;;;;;;4946975;28;20058;-71
2023/04/24 04:58:19;;;;;;;7.97;4.13;;;15.70;96.70;;;;;;4961725;28;20054;-71
2023/04/24 05:00:52;;;;;;;5.55;2.92;;;15.70;96.70;;;;;;4962335;28;20050;-71
2023/04/24 05:03:30;;;;;;;5.90;3.35;;;15.70;96.70;;;;;;4946150;28;20050;-71
2023/04/24 05:06:10;;;;;;;6.47;3.10;;;15.70;96.70;;;;;;4962269;28;20047;-72
2023/04/24 05:08:39;;;;;;;10.07;3.03;;;15.70;96.70;;;;;;4966822;28;20078;-71
2023/04/24 05:11:19;;;;;;;5.85;3.28;;;15.80;96.70;;;;;;4962742;28;20400;-71
2023/04/24 05:13:48;;;;;;;9.38;2.92;;;15.80;96.70;;;;;;4962075;28;20055;-71
2023/04/24 05:16:24;;;;;;;7.10;2.60;;;15.80;96.70;;;;;;4962086;28;20054;-71
2023/04/24 05:18:53;;;;;;;8.15;2.67;;;15.90;96.70;;;;;;4961980;28;20408;-71
2023/04/24 05:21:27;;;;;;;10.63;2.53;;;15.90;96.70;;;;;;4962403;28;20051;-72
2023/04/24 05:23:55;;;;;;;9.18;2.92;;;15.90;96.70;;;;;;4961640;28;20700;-72
2023/04/24 05:26:46;;;;;;;9.88;2.65;;;15.90;96.70;;;;;;4963002;28;20568;-71
2023/04/24 05:29:20;;;;;;;7.88;2.00;;;15.90;96.70;;;;;;4961878;28;20476;-71
2023/04/24 05:31:47;;;;;;;8.13;2.22;;;15.90;96.70;;;;;;4962373;28;20057;-72
2023/04/24 05:34:16;;;;;;;10.15;2.58;;;15.90;96.70;;;;;;4963652;28;20142;-71
2023/04/24 05:36:47;;;;;;;8.35;1.90;;;15.90;96.70;;;;;;4946672;28;20051;-72
2023/04/24 05:39:15;;;;;;;8.43;2.42;;;15.90;96.70;;;;;;4969790;28;20446;-71
2023/04/24 05:41:43;;;;;;;11.35;2.15;;;15.90;96.70;;;;;;4962025;28;20133;-71
2023/04/24 05:44:11;;;;;;;11.35;2.33;;;15.90;96.70;;;;;;4962224;28;20512;-71
2023/04/24 05:46:41;;;;;;;10.40;2.05;;;15.90;96.70;;;;;;4946170;28;20051;-71
2023/04/24 05:49:10;;;;;;;12.90;2.53;;;15.80;96.70;;;;;;4961915;28;20145;-71
2023/04/24 05:51:39;;;;;;;8.68;2.45;;;15.80;96.70;;;;;;4958560;28;20051;-71
2023/04/24 05:54:07;;;;;;;9.88;2.58;;;15.80;96.70;;;;;;4966577;28;20046;-71
2023/04/24 05:56:35;;;;;;;9.70;2.25;;;15.80;96.70;;;;;;4962052;28;20536;-71
2023/04/24 05:59:05;;;;;;;9.07;2.15;;;15.80;96.70;;;;;;4962136;28;20046;-71
2023/04/24 06:01:33;;;;;;;11.45;3.05;;;15.90;96.70;;;;;;4963241;28;20054;-71
2023/04/24 06:04:13;;;;;;;11.18;1.98;;;15.90;96.70;;;;;;4964418;28;20054;-71
2023/04/24 06:06:41;;;;;;;9.73;1.80;;;16.10;96.70;;;;;;4966675;28;20070;-71
2023/04/24 06:09:10;;;;;;;12.75;2.13;;;16.10;96.70;;;;;;4973826;28;20046;-71
2023/04/24 06:11:38;;;;;;;6.05;1.95;;;16.30;96.70;;;;;;4965211;28;20057;-71
2023/04/24 06:14:09;;;;;;;6.35;1.60;;;16.40;96.70;;;;;;4965152;28;20085;-71
2023/04/24 06:16:38;;;;;;;8.63;1.75;;;16.50;96.70;;;;;;4965949;28;20051;-71
2023/04/24 06:19:19;;;;;;;5.60;1.73;;;16.70;96.70;;;;;;4965042;28;20046;-72
2023/04/24 06:21:47;;;;;;;8.80;1.70;;;16.70;96.70;;;;;;4965427;28;20059;-71
2023/04/24 06:24:16;;;;;;;9.20;1.80;;;16.70;96.70;;;;;;4966775;28;20047;-71
2023/04/24 06:26:44;;;;;;;8.02;1.50;;;16.70;96.70;;;;;;4964422;28;20449;-72
2023/04/24 06:29:12;;;;;;;10.88;2.03;;;16.70;96.70;;;;;;4947566;28;20114;-72
2023/04/24 06:31:40;;;;;;;11.35;2.25;;;16.80;96.70;;;;;;4964539;28;20050;-71
2023/04/24 06:34:08;;;;;;;6.47;1.30;;;16.80;96.70;;;;;;4964362;28;20051;-71
2023/04/24 06:36:37;;;;;;;8.55;1.67;;;16.80;96.70;;;;;;4965102;28;20513;-72
2023/04/24 06:39:06;;;;;;;10.60;2.25;;;16.80;96.70;;;;;;4968688;28;20042;-71
2023/04/24 06:41:34;;;;;;;8.07;1.45;;;16.80;96.70;;;;;;4965728;28;20074;-71
2023/04/24 06:44:02;;;;;;;9.02;1.98;;;16.90;96.70;;;;;;4964563;28;20066;-71
2023/04/24 06:46:30;;;;;;;6.75;1.90;;;17.00;96.70;;;;;;4964562;28;20089;-72
2023/04/24 06:48:58;;;;;;;7.07;1.50;;;17.10;96.70;;;;;;4965983;28;20046;-72
2023/04/24 06:51:26;;;;;;;9.60;1.85;;;17.00;96.70;;;;;;4948505;28;20057;-71
2023/04/24 06:53:56;;;;;;;9.30;1.80;;;17.00;96.70;;;;;;4969078;28;20042;-72
2023/04/24 06:56:23;;;;;;;7.43;1.50;;;17.10;96.70;;;;;;4965125;28;20533;-71
2023/04/24 06:58:51;;;;;;;12.65;2.20;;;17.20;96.70;;;;;;4948487;28;20113;-71
2023/04/24 07:01:20;;;;;;;13.60;2.95;;;17.30;96.70;;;;;;4963270;28;20133;-71
2023/04/24 07:03:47;;;;;;;8.15;1.70;;;17.30;96.70;;;;;;4960385;28;20043;-71
2023/04/24 07:06:18;;;;;;;7.28;1.70;;;17.30;96.70;;;;;;4948172;28;20495;-71
2023/04/24 07:08:46;;;;;;;10.32;1.77;;;17.40;96.70;;;;;;4947110;28;20559;-71
2023/04/24 07:11:15;;;;;;;15.55;2.55;;;17.50;96.70;;;;;;4948341;28;20057;-72
2023/04/24 07:13:44;;;;;;;8.15;1.40;;;17.60;96.70;;;;;;4968887;28;20043;-71
2023/04/24 07:16:12;;;;;;;9.73;2.10;;;17.50;96.70;;;;;;4965213;28;20389;-71
2023/04/24 07:18:40;;;;;;;11.05;1.95;;;17.20;96.70;;;;;;4965129;28;20047;-71
2023/04/24 07:21:08;;;;;;;13.75;2.33;;;17.00;96.70;;;;;;4963547;28;20054;-71
2023/04/24 07:23:35;;;;;;;8.10;1.88;;;16.70;96.70;;;;;;4964764;28;20120;-71
2023/04/24 07:26:04;;;;;;;10.75;1.50;;;16.50;96.70;;;;;;4964323;28;20126;-71
2023/04/24 07:28:54;;;;;;;10.98;2.35;;;16.40;96.70;;;;;;4963364;28;20046;-71
2023/04/24 07:31:23;;;;;;;8.85;1.90;;;16.40;96.70;;;;;;4941412;28;20062;-72
2023/04/24 07:33:51;;;;;;;10.95;1.75;;;16.40;96.70;;;;;;4924674;28;20761;-71
2023/04/24 07:36:20;;;;;;;11.23;2.00;;;16.30;96.70;;;;;;4942943;28;20167;-71
2023/04/24 07:38:48;;;;;;;12.65;1.90;;;16.40;96.70;;;;;;4926728;29;20055;-72
2023/04/24 07:41:16;;;;;;;10.98;2.00;;;16.60;96.70;;;;;;4926910;29;20082;-72
2023/04/24 07:43:46;;;;;;;6.60;1.58;;;16.60;96.70;;;;;;4923390;29;20048;-71
2023/04/24 07:46:14;;;;;;;10.32;2.10;;;16.60;96.70;;;;;;4950535;28;20085;-72
2023/04/24 07:48:42;;;;;;;8.88;1.63;;;16.60;96.70;;;;;;4948674;28;20062;-72
2023/04/24 07:51:13;;;;;;;9.00;1.80;;;16.50;96.70;;;;;;4972047;28;20070;-71
2023/04/24 07:53:41;;;;;;;10.90;2.38;;;16.70;96.70;;;;;;4968224;28;20042;-71
2023/04/24 07:56:09;;;;;;;10.93;2.38;;;16.80;96.70;;;;;;4966651;28;20051;-71
2023/04/24 07:58:37;;;;;;;14.52;1.98;;;17.00;96.70;;;;;;4947149;28;20069;-71
2023/04/24 08:01:07;;;;;;;10.90;2.13;;;17.20;96.70;;;;;;4946945;28;20051;-71
2023/04/24 08:03:35;;;;;;;13.23;1.98;;;17.30;96.70;;;;;;4963827;28;20043;-71
2023/04/24 08:06:04;;;;;;;9.85;2.30;;;17.30;96.70;;;;;;4963632;28;20787;-72
2023/04/24 08:08:32;;;;;;;11.38;1.95;;;17.40;96.70;;;;;;4963266;28;20512;-72
2023/04/24 08:11:01;;;;;;;13.93;2.60;;;17.40;96.70;;;;;;4961611;28;20054;-72
2023/04/24 08:13:29;;;;;;;11.30;2.40;;;17.60;96.70;;;;;;4962031;28;20055;-72
2023/04/24 08:15:57;;;;;;;10.85;2.97;;;17.50;96.70;;;;;;4963785;28;20130;-71
2023/04/24 08:18:27;;;;;;;8.35;1.65;;;17.50;96.70;;;;;;4956489;28;20043;-71
2023/04/24 08:21:01;;;;;;;9.27;1.80;;;17.50;96.70;;;;;;4964405;28;20097;-71
2023/04/24 08:23:30;;;;;;;10.63;2.28;;;17.60;96.70;;;;;;4962829;28;20129;-71
2023/04/24 08:25:58;;;;;;;8.95;1.83;;;17.80;96.70;;;;;;4959744;28;20608;-72
2023/04/24 08:28:26;;;;;;;7.50;1.80;;;17.80;96.70;;;;;;4961880;28;20184;-72
2023/04/24 08:30:54;;;;;;;11.05;2.50;;;17.70;96.70;;;;;;4962795;28;20404;-72
2023/04/24 08:33:23;;;;;;;14.50;2.13;;;17.80;96.70;;;;;;4962751;28;20058;-72
2023/04/24 08:35:53;;;;;;;9.32;2.33;;;17.80;96.70;;;;;;4962693;28;20038;-71
2023/04/24 08:38:20;;;;;;;10.68;2.42;;;17.80;96.70;;;;;;4962338;28;20062;-71
2023/04/24 08:40:49;;;;;;;12.15;2.60;;;18.00;96.70;;;;;;4970788;28;20043;-71
2023/04/24 08:43:18;;;;;;;11.25;2.33;;;18.30;96.70;;;;;;4963392;28;20089;-71
2023/04/24 08:45:46;;;;;;;9.27;2.10;;;18.20;96.70;;;;;;4946392;28;21068;-71
2023/04/24 08:48:17;;;;;;;11.45;2.53;;;18.10;96.70;;;;;;4964055;28;20564;-71
2023/04/24 08:50:59;;;;;;;7.30;2.75;;;18.00;96.70;;;;;;4964023;28;20472;-71
2023/04/24 08:53:27;;;;;;;9.95;2.03;;;17.90;96.70;;;;;;4962372;28;20053;-71
2023/04/24 08:55:56;;;;;;;6.85;1.65;;;17.90;96.70;;;;;;4960651;28;20632;-71
2023/04/24 08:58:26;;;;;;;9.63;2.08;;;17.90;96.70;;;;;;4961992;28;20043;-71
2023/04/24 09:00:55;;;;;;;7.22;1.70;;;18.10;96.70;;;;;;4963875;28;20086;-70
2023/04/24 09:03:23;;;;;;;15.13;2.35;;;18.10;96.70;;;;;;4960561;28;20054;-71
2023/04/24 09:05:55;;;;;;;7.90;1.98;;;18.20;96.70;;;;;;4962748;28;20527;-71
2023/04/24 09:08:25;;;;;;;13.55;3.08;;;18.20;96.70;;;;;;4963298;28;20055;-71
2023/04/24 09:10:54;;;;;;;11.20;3.05;;;18.00;96.70;;;;;;4967767;28;20688;-72
2023/04/24 09:13:22;;;;;;;8.93;2.08;;;17.80;96.70;;;;;;4963828;28;20051;-72
2023/04/24 09:15:50;;;;;;;8.25;2.05;;;17.70;96.70;;;;;;4962398;28;20042;-71
2023/04/24 09:18:20;;;;;;;8.68;1.92;;;17.70;96.70;;;;;;4960925;28;20109;-71
2023/04/24 09:21:01;;;;;;;11.68;2.22;;;17.60;96.70;;;;;;4963018;28;20050;-72
2023/04/24 09:23:31;;;;;;;8.88;2.17;;;17.60;96.70;;;;;;4961615;28;20050;-71
2023/04/24 09:26:00;;;;;;;8.73;2.33;;;17.60;96.70;;;;;;4962108;28;20169;-71
2023/04/24 09:28:32;;;;;;;12.77;2.92;;;17.80;96.70;;;;;;4962616;28;20050;-71
2023/04/24 09:31:07;;;;;;;14.52;2.30;;;17.90;96.70;;;;;;4954379;28;20694;-70
2023/04/24 09:33:36;;;;;;;11.32;2.83;;;18.00;96.70;;;;;;4963296;28;20081;-70
2023/04/24 09:36:05;;;;;;;8.00;1.83;;;18.10;96.70;;;;;;4946470;28;20515;-71
2023/04/24 09:38:38;;;;;;;14.57;2.65;;;18.30;96.70;;;;;;4965621;28;20050;-71
2023/04/24 09:41:13;;;;;;;12.32;2.40;;;18.20;96.70;;;;;;4967354;28;20421;-72
2023/04/24 09:43:40;;;;;;;12.50;2.58;;;18.10;96.70;;;;;;4965888;28;20057;-71
2023/04/24 09:46:09;;;;;;;8.50;2.13;;;18.10;96.70;;;;;;4967244;28;20517;-71
2023/04/24 09:48:38;;;;;;;10.13;2.13;;;18.00;96.70;;;;;;4966952;28;20164;-71
2023/04/24 09:51:10;;;;;;;11.90;2.10;;;18.00;96.70;;;;;;4965471;28;20409;-71
2023/04/24 09:53:40;;;;;;;10.32;1.70;;;18.10;96.70;;;;;;4966384;28;20097;-71
2023/04/24 09:56:13;;;;;;;12.77;2.60;;;18.20;96.70;;;;;;4965990;28;20077;-71
2023/04/24 09:58:41;;;;;;;12.68;2.38;;;18.10;96.70;;;;;;4965544;28;20047;-71
2023/04/24 10:01:09;;;;;;;9.40;2.10;;;18.20;96.70;;;;;;4966915;28;20043;-71
2023/04/24 10:03:38;;;;;;;10.93;2.10;;;18.50;96.70;;;;;;4964987;28;20043;-71
2023/04/24 10:06:08;;;;;;;14.75;2.28;;;18.40;96.70;;;;;;4965072;28;20109;-70
2023/04/24 10:08:37;;;;;;;10.88;2.03;;;18.30;96.70;;;;;;4965383;28;20501;-70
2023/04/24 10:11:07;;;;;;;10.07;2.90;;;18.20;96.70;;;;;;4966902;28;20046;-70
2023/04/24 10:13:37;;;;;;;11.27;1.98;;;18.30;96.70;;;;;;4965103;28;20583;-71
2023/04/24 10:16:07;;;;;;;10.07;2.30;;;18.30;96.70;;;;;;4966349;28;20752;-70
2023/04/24 10:18:35;;;;;;;10.93;2.10;;;18.40;96.70;;;;;;4966761;28;20054;-70
2023/04/24 10:21:03;;;;;;;12.68;2.05;;;18.50;96.70;;;;;;4966813;28;20055;-70
2023/04/24 10:23:31;;;;;;;9.90;2.10;;;18.60;96.70;;;;;;4964381;28;20055;-69
2023/04/24 10:26:01;;;;;;;9.95;1.85;;;18.50;96.70;;;;;;4964721;28;20508;-70
2023/04/24 10:28:31;;;;;;;8.40;1.80;;;18.70;96.70;;;;;;4964545;28;20573;-70
2023/04/24 10:31:00;;;;;;;12.18;2.35;;;18.90;96.70;;;;;;4965979;28;20047;-71
2023/04/24 10:33:29;;;;;;;7.03;2.17;;;19.00;96.70;;;;;;4962005;28;20113;-70
2023/04/24 10:35:58;;;;;;;9.20;2.03;;;19.10;96.70;;;;;;4966309;28;20055;-70
2023/04/24 10:38:28;;;;;;;7.75;1.83;;;19.20;96.70;;;;;;4965839;28;20043;-70
2023/04/24 10:41:07;;;;;;;10.85;2.25;;;19.60;96.70;;;;;;4964967;28;20058;-70
2023/04/24 10:43:36;;;;;;;13.30;2.20;;;19.60;96.70;;;;;;4966378;28;20042;-70
2023/04/24 10:46:05;;;;;;;12.13;2.42;;;19.80;96.70;;;;;;4965000;28;20053;-70
2023/04/24 10:48:33;;;;;;;10.40;2.10;;;19.80;96.70;;;;;;4965116;28;20069;-70
2023/04/24 10:51:01;;;;;;;10.82;2.22;;;19.80;96.70;;;;;;4965041;28;20800;-70
2023/04/24 10:53:30;;;;;;;11.80;2.20;;;19.80;96.70;;;;;;4971661;28;20116;-70
2023/04/24 10:55:59;;;;;;;15.55;3.05;;;19.70;96.70;;;;;;4966382;28;20523;-70
2023/04/24 10:58:40;;;;;;;13.77;2.33;;;19.80;96.70;;;;;;4966180;28;20082;-70
2023/04/24 11:01:08;;;;;;;12.27;2.20;;;19.70;96.70;;;;;;4964204;28;20126;-70
2023/04/24 11:03:36;;;;;;;13.05;2.50;;;19.80;96.70;;;;;;4971776;28;20798;-70
2023/04/24 11:06:05;;;;;;;12.90;2.20;;;19.90;96.70;;;;;;4965539;28;20497;-71
2023/04/24 11:08:38;;;;;;;9.48;1.77;;;19.90;96.70;;;;;;4964823;28;20129;-70
2023/04/24 11:11:12;;;;;;;8.43;1.70;;;20.00;96.70;;;;;;4977600;28;20556;-70
2023/04/24 11:14:04;;;;;;;11.10;2.55;;;20.00;96.70;;;;;;4963088;28;20077;-70
2023/04/24 11:16:33;;;;;;;9.98;2.05;;;20.00;96.70;;;;;;4958745;28;20054;-70
2023/04/24 11:19:03;;;;;;;11.88;1.88;;;19.90;96.70;;;;;;4965764;28;20042;-70
2023/04/24 11:21:32;;;;;;;6.45;1.80;;;20.00;96.70;;;;;;4951683;28;20066;-70
2023/04/24 11:24:25;;;;;;;7.50;1.83;;;19.80;96.70;;;;;;4963638;28;20499;-70
2023/04/24 11:26:54;;;;;;;9.23;2.03;;;19.80;96.70;;;;;;4959638;28;20042;-70
2023/04/24 11:29:40;;;;;;;8.05;1.67;;;20.00;96.70;;;;;;4963893;28;20412;-70
2023/04/24 11:32:29;;;;;;;6.95;1.35;;;19.80;96.70;;;;;;4973797;28;20096;-70
2023/04/24 11:35:05;;;;;;;6.97;1.42;;;20.00;96.70;;;;;;4963648;28;20058;-71
2023/04/24 11:37:37;;;;;;;10.10;1.50;;;19.90;96.70;;;;;;4963631;28;20050;-70
2023/04/24 11:40:07;;;;;;;9.55;1.65;;;20.10;96.70;;;;;;4963843;28;20462;-71
2023/04/24 11:42:35;;;;;;;6.75;1.27;;;20.10;96.70;;;;;;4971803;28;20049;-71
2023/04/24 11:45:10;;;;;;;9.55;1.70;;;20.20;96.70;;;;;;4964154;28;20173;-70
2023/04/24 11:47:40;;;;;;;7.50;1.80;;;20.10;96.70;;;;;;4969726;28;20050;-71
2023/04/24 11:50:31;;;;;;;10.30;1.75;;;20.00;96.70;;;;;;4964936;28;20054;-71
2023/04/24 11:53:00;;;;;;;7.88;1.50;;;20.30;96.70;;;;;;4960294;28;20146;-70
2023/04/24 11:55:29;;;;;;;8.05;1.60;;;20.30;96.70;;;;;;4965264;28;20130;-70
2023/04/24 11:57:58;;;;;;;9.20;1.35;;;20.40;96.70;;;;;;4970080;28;20052;-70
2023/04/24 12:00:29;;;;;;;5.38;1.30;;;20.20;96.70;;;;;;4962930;28;20093;-71
2023/04/24 12:03:06;;;;;;;10.90;1.92;;;20.30;96.70;;;;;;4957107;28;20050;-70
2023/04/24 12:05:35;;;;;;;10.13;2.08;;;20.30;96.70;;;;;;4964011;28;20133;-70
2023/04/24 12:08:04;;;;;;;6.05;1.73;;;20.30;96.70;;;;;;4962770;28;20755;-71
2023/04/24 12:10:34;;;;;;;11.93;2.42;;;20.40;96.70;;;;;;4965087;28;20486;-71
2023/04/24 12:13:03;;;;;;;11.45;1.55;;;20.40;96.70;;;;;;4978994;28;20235;-70
2023/04/24 12:15:33;;;;;;;9.68;1.65;;;20.30;96.70;;;;;;4946953;28;20479;-69
2023/04/24 12:18:01;;;;;;;8.43;1.95;;;20.30;96.70;;;;;;4962660;28;20047;-70
2023/04/24 12:20:31;;;;;;;9.38;2.20;;;20.40;96.70;;;;;;4946628;28;20502;-70
2023/04/24 12:23:00;;;;;;;9.13;1.48;;;20.50;96.70;;;;;;4946314;28;20746;-70
2023/04/24 12:25:29;;;;;;;9.63;1.55;;;20.50;96.70;;;;;;4947237;28;20815;-72
2023/04/24 12:28:13;;;;;;;8.85;1.58;;;20.70;96.70;;;;;;4973134;28;20117;-70
2023/04/24 12:30:48;;;;;;;8.02;1.73;;;20.80;96.70;;;;;;4964313;28;20047;-71
2023/04/24 12:33:19;;;;;;;9.18;2.22;;;20.70;96.70;;;;;;4946317;28;20157;-71
2023/04/24 12:35:48;;;;;;;8.05;1.70;;;20.70;96.70;;;;;;4955811;28;20057;-70
2023/04/24 12:38:21;;;;;;;7.25;1.70;;;20.70;96.70;;;;;;4962213;28;20500;-71
2023/04/24 12:41:02;;;;;;;11.18;2.03;;;20.70;96.70;;;;;;4964510;28;20061;-71
2023/04/24 12:43:30;;;;;;;7.70;1.85;;;20.80;96.70;;;;;;4963703;28;20046;-71
2023/04/24 12:46:38;;;;;;;7.38;1.48;;;20.70;96.70;;;;;;4963758;28;20830;-69
2023/04/24 12:49:08;;;;;;;7.40;1.73;;;20.70;96.70;;;;;;4963573;28;20133;-70
2023/04/24 12:51:37;;;;;;;9.40;1.83;;;20.80;96.70;;;;;;4963211;28;20038;-70
2023/04/24 12:54:06;;;;;;;9.73;1.50;;;20.70;96.70;;;;;;4945486;28;20154;-70
2023/04/24 12:56:38;;;;;;;9.98;1.73;;;20.80;96.70;;;;;;4964411;28;20043;-70
2023/04/24 12:59:07;;;;;;;6.60;2.05;;;21.10;96.70;;;;;;4964203;28;20552;-71